Time;durP1;ratioP1;P1;durP2;ratioP2;P2;SDS_P1;SDS_P2;PMS_P1;PMS_P2;Temp;Humidity;BMP_temperature;BMP_pressure;BME280_temperature;BME280_humidity;BME280_pressure;Samples;Min_cycle;Max_cycle;Signal;HPM_P1;HPM_P2
2022/06/16 00:01:41;;;;;;;;;;;;;;;18.47;100.00;100514.56;5092012;28;20386;-68
2022/06/16 00:04:06;;;;;;;;;;;;;;;18.46;100.00;100518.06;5092954;28;19918;-69
2022/06/16 00:06:31;;;;;;;;;;;;;;;18.82;100.00;100524.66;5092988;28;19912;-68
2022/06/16 00:08:57;;;;;;;;;;;;;;;18.69;100.00;100523.66;5092961;28;19918;-70
2022/06/16 00:11:22;;;;;;;;;;;;;;;18.79;100.00;100524.00;5092998;28;19912;-69
2022/06/16 00:13:48;;;;;;;;;;;;;;;18.83;100.00;100526.34;5074812;28;20451;-68
2022/06/16 00:16:14;;;;;;;;;;;;;;;18.49;100.00;100523.03;5092991;28;19912;-69
2022/06/16 00:18:39;;;;;;;;;;;;;;;18.41;100.00;100515.66;5075039;28;19938;-69
2022/06/16 00:21:05;;;;;;;;;;;;;;;18.69;100.00;100515.09;5092992;28;20283;-69
2022/06/16 00:23:30;;;;;;;;;;;;;;;18.42;100.00;100519.91;5092559;28;19934;-68
2022/06/16 00:25:55;;;;;;;;;;;;;;;18.21;100.00;100515.84;5092848;28;19976;-70
2022/06/16 00:28:21;;;;;;;;;;;;;;;18.40;100.00;100519.16;5074466;28;19912;-69
2022/06/16 00:30:47;;;;;;;;;;;;;;;18.26;100.00;100508.75;5092737;28;19912;-69
2022/06/16 00:33:12;;;;;;;;;;;;;;;18.64;100.00;100514.53;5092627;28;19912;-69
2022/06/16 00:35:37;;;;;;;;;;;;;;;18.30;100.00;100517.13;5092390;28;20413;-69
2022/06/16 00:38:02;;;;;;;;;;;;;;;18.31;100.00;100505.91;5092042;28;20069;-69
2022/06/16 00:40:28;;;;;;;;;;;;;;;18.24;100.00;100512.28;5090916;28;19919;-69
2022/06/16 00:42:53;;;;;;;;;;;;;;;18.35;100.00;100499.69;5091365;28;20286;-69
2022/06/16 00:45:37;;;;;;;;;;;;;;;18.10;100.00;100513.00;5091040;28;19908;-69
2022/06/16 00:48:02;;;;;;;;;;;;;;;18.22;100.00;100507.22;5092000;28;20556;-69
2022/06/16 00:50:28;;;;;;;;;;;;;;;18.39;100.00;100508.94;5092147;28;19912;-69
2022/06/16 00:52:54;;;;;;;;;;;;;;;18.39;100.00;100503.78;5073934;28;19916;-68
2022/06/16 00:55:19;;;;;;;;;;;;;;;18.19;100.00;100499.66;5092168;28;19919;-68
2022/06/16 00:57:46;;;;;;;;;;;;;;;18.43;100.00;100500.16;5073696;28;19951;-70
2022/06/16 01:00:18;;;;;;;;;;;;;;;18.11;100.00;100494.91;5092000;28;19941;-68
2022/06/16 01:02:44;;;;;;;;;;;;;;;18.01;100.00;100490.28;5073839;28;19916;-70
2022/06/16 01:05:09;;;;;;;;;;;;;;;18.14;100.00;100493.91;5090633;28;19912;-69
2022/06/16 01:07:37;;;;;;;;;;;;;;;18.29;100.00;100482.81;5073319;28;19915;-69
2022/06/16 01:10:04;;;;;;;;;;;;;;;18.12;100.00;100493.16;5092028;28;19918;-70
2022/06/16 01:15:37;;;;;;;;;;;;;;;18.28;100.00;100493.22;5091751;28;20018;-69
2022/06/16 01:18:02;;;;;;;;;;;;;;;18.14;100.00;100484.44;5073019;28;19934;-69
2022/06/16 01:20:37;;;;;;;;;;;;;;;18.15;100.00;100483.53;5073881;28;20373;-69
2022/06/16 01:23:02;;;;;;;;;;;;;;;18.46;100.00;100479.44;5073457;28;19912;-70
2022/06/16 01:25:33;;;;;;;;;;;;;;;18.19;100.00;100476.47;5091898;28;19961;-69
2022/06/16 01:27:59;;;;;;;;;;;;;;;18.38;100.00;100477.19;5091990;28;19919;-69
2022/06/16 01:30:31;;;;;;;;;;;;;;;18.12;100.00;100478.53;5091778;28;19915;-70
2022/06/16 01:33:02;;;;;;;;;;;;;;;18.16;100.00;100471.50;5091897;28;19918;-69
2022/06/16 01:35:36;;;;;;;;;;;;;;;18.38;100.00;100474.63;5073332;28;19963;-69
2022/06/16 01:38:01;;;;;;;;;;;;;;;17.96;100.00;100469.09;5091442;28;19927;-69
2022/06/16 01:40:45;;;;;;;;;;;;;;;18.02;100.00;100466.22;5073153;28;19912;-69
2022/06/16 01:43:10;;;;;;;;;;;;;;;17.83;100.00;100463.72;5091514;28;19918;-68
2022/06/16 01:46:02;;;;;;;;;;;;;;;17.92;100.00;100459.88;5073247;28;20237;-69
2022/06/16 01:48:28;;;;;;;;;;;;;;;17.90;100.00;100453.97;5068703;28;20019;-69
2022/06/16 01:50:56;;;;;;;;;;;;;;;17.76;100.00;100457.25;5091600;28;20662;-69
2022/06/16 01:53:33;;;;;;;;;;;;;;;17.89;100.00;100457.44;5090815;28;19912;-68
2022/06/16 01:56:20;;;;;;;;;;;;;;;17.85;100.00;100466.22;5091540;28;19912;-69
2022/06/16 01:58:48;;;;;;;;;;;;;;;17.76;100.00;100464.97;5091313;28;19916;-70
2022/06/16 02:01:16;;;;;;;;;;;;;;;17.73;100.00;100461.69;5076232;28;19995;-69
2022/06/16 02:03:49;;;;;;;;;;;;;;;17.88;100.00;100461.78;5084071;28;19916;-69
2022/06/16 02:06:19;;;;;;;;;;;;;;;17.72;100.00;100460.03;5090981;28;19916;-69
2022/06/16 02:08:47;;;;;;;;;;;;;;;17.25;100.00;100463.13;5090824;28;19977;-69
2022/06/16 02:11:32;;;;;;;;;;;;;;;17.30;100.00;100461.19;5090851;28;19965;-69
2022/06/16 02:14:02;;;;;;;;;;;;;;;17.37;100.00;100469.44;5072881;28;19912;-74
2022/06/16 02:16:30;;;;;;;;;;;;;;;17.64;100.00;100468.13;5072592;28;20002;-69
2022/06/16 02:18:56;;;;;;;;;;;;;;;17.66;100.00;100465.47;5091253;28;19912;-70
2022/06/16 02:21:26;;;;;;;;;;;;;;;17.15;100.00;100474.75;5090373;28;19923;-69
2022/06/16 02:23:51;;;;;;;;;;;;;;;17.31;100.00;100464.59;5090687;28;19916;-69
2022/06/16 02:26:17;;;;;;;;;;;;;;;17.58;100.00;100473.56;5090455;28;19934;-69
2022/06/16 02:28:47;;;;;;;;;;;;;;;17.54;100.00;100471.22;5093148;28;19919;-69
2022/06/16 02:31:12;;;;;;;;;;;;;;;17.34;100.00;100469.56;5076717;28;19924;-69
2022/06/16 02:33:37;;;;;;;;;;;;;;;17.14;100.00;100474.81;5076433;28;20074;-69
2022/06/16 02:36:11;;;;;;;;;;;;;;;17.42;100.00;100479.47;5093806;28;19916;-69
2022/06/16 02:38:39;;;;;;;;;;;;;;;17.51;100.00;100477.34;5094121;28;19951;-69
2022/06/16 02:41:16;;;;;;;;;;;;;;;17.09;100.00;100475.03;5059164;28;19912;-70
2022/06/16 02:43:49;;;;;;;;;;;;;;;17.06;100.00;100475.19;5089710;28;19915;-69
2022/06/16 02:46:23;;;;;;;;;;;;;;;17.07;100.00;100473.44;5076258;28;19916;-69
2022/06/16 02:48:52;;;;;;;;;;;;;;;17.29;100.00;100466.41;5094704;28;20374;-69
2022/06/16 02:51:21;;;;;;;;;;;;;;;17.10;100.00;100470.72;5094070;28;19912;-69
2022/06/16 02:56:29;;;;;;;;;;;;;;;17.03;100.00;100480.47;5093306;28;20398;-70
2022/06/16 02:58:57;;;;;;;;;;;;;;;17.51;100.00;100479.09;5089754;28;19916;-70
2022/06/16 03:01:23;;;;;;;;;;;;;;;17.04;100.00;100471.00;5094044;28;19923;-69
2022/06/16 03:04:03;;;;;;;;;;;;;;;17.38;100.00;100476.22;5094583;28;19912;-69
2022/06/16 03:06:28;;;;;;;;;;;;;;;17.27;100.00;100479.31;5087235;28;20382;-70
2022/06/16 03:08:55;;;;;;;;;;;;;;;17.38;100.00;100486.53;5074337;28;19912;-71
2022/06/16 03:11:20;;;;;;;;;;;;;;;17.24;100.00;100483.75;5074401;28;20428;-70
2022/06/16 03:13:46;;;;;;;;;;;;;;;17.35;100.00;100484.91;5073468;28;20063;-71
2022/06/16 03:16:11;;;;;;;;;;;;;;;17.43;100.00;100483.75;5073682;28;19919;-70
2022/06/16 03:18:36;;;;;;;;;;;;;;;17.47;100.00;100492.97;5091836;28;19912;-70
2022/06/16 03:21:02;;;;;;;;;;;;;;;17.66;100.00;100496.34;5074041;28;20278;-71
2022/06/16 03:23:27;;;;;;;;;;;;;;;17.23;100.00;100495.78;5093237;28;19916;-70
2022/06/16 03:25:52;;;;;;;;;;;;;;;17.46;100.00;100489.56;5093864;28;19974;-70
2022/06/16 03:28:18;;;;;;;;;;;;;;;17.25;100.00;100491.41;5094011;28;19969;-71
2022/06/16 03:30:44;;;;;;;;;;;;;;;17.37;100.00;100490.00;5075951;28;19920;-71
2022/06/16 03:33:10;;;;;;;;;;;;;;;17.50;100.00;100487.69;5093693;28;19912;-71
2022/06/16 03:35:36;;;;;;;;;;;;;;;17.25;100.00;100496.53;5094111;28;20351;-72
2022/06/16 03:39:02;;;;;;;;;;;;;;;17.32;100.00;100492.78;5093966;28;19912;-70
2022/06/16 03:40:56;;;;;;;;;;;;;;;17.77;100.00;100504.34;5087233;28;19912;-71
2022/06/16 03:43:21;;;;;;;;;;;;;;;17.20;100.00;100501.06;5093715;28;19969;-70
2022/06/16 03:45:46;;;;;;;;;;;;;;;17.54;100.00;100496.94;5093963;28;19938;-72
2022/06/16 03:48:12;;;;;;;;;;;;;;;17.59;100.00;100493.22;5093731;28;19915;-70
2022/06/16 03:50:38;;;;;;;;;;;;;;;17.75;100.00;100493.31;5093386;28;19912;-70
2022/06/16 03:53:03;;;;;;;;;;;;;;;17.86;100.00;100493.63;5062604;28;19912;-71
2022/06/16 03:55:28;;;;;;;;;;;;;;;17.83;100.00;100493.75;5073254;28;20247;-71
2022/06/16 03:57:54;;;;;;;;;;;;;;;17.85;100.00;100499.66;5073134;28;19981;-71
2022/06/16 04:00:21;;;;;;;;;;;;;;;17.92;100.00;100503.63;5073442;28;20309;-72
2022/06/16 04:03:59;;;;;;;;;;;;;;;17.94;100.00;100501.81;5093267;28;20006;-71
2022/06/16 04:05:35;;;;;;;;;;;;;;;17.85;100.00;100507.38;5092722;28;19922;-70
2022/06/16 04:08:00;;;;;;;;;;;;;;;18.14;100.00;100512.75;5075099;28;20153;-71
2022/06/16 04:10:25;;;;;;;;;;;;;;;17.73;100.00;100507.97;5074559;28;19990;-71
2022/06/16 04:12:50;;;;;;;;;;;;;;;18.13;100.00;100510.25;5087459;28;19916;-70
2022/06/16 04:15:16;;;;;;;;;;;;;;;18.16;100.00;100518.66;5072307;28;19912;-70
2022/06/16 04:17:41;;;;;;;;;;;;;;;18.31;100.00;100516.22;5072600;28;20070;-69
2022/06/16 04:20:12;;;;;;;;;;;;;;;18.47;100.00;100514.56;5084511;28;20546;-70
2022/06/16 04:22:38;;;;;;;;;;;;;;;18.36;100.00;100512.47;5092574;28;19912;-71
2022/06/16 04:25:05;;;;;;;;;;;;;;;18.99;100.00;100511.69;5092059;28;19939;-71
2022/06/16 04:27:31;;;;;;;;;;;;;;;18.93;100.00;100517.22;5071524;28;19920;-71
2022/06/16 04:29:56;;;;;;;;;;;;;;;18.83;100.00;100523.78;5093010;28;19922;-70
2022/06/16 04:32:21;;;;;;;;;;;;;;;19.24;100.00;100518.94;5090987;28;19912;-70
2022/06/16 04:34:48;;;;;;;;;;;;;;;19.39;100.00;100525.06;5092482;28;19994;-69
2022/06/16 04:37:13;;;;;;;;;;;;;;;19.49;100.00;100531.38;5074137;28;19912;-69
2022/06/16 04:39:39;;;;;;;;;;;;;;;19.59;100.00;100532.53;5092156;28;19947;-69
2022/06/16 04:42:05;;;;;;;;;;;;;;;19.64;100.00;100536.50;5074058;28;20488;-69
2022/06/16 04:44:31;;;;;;;;;;;;;;;20.00;100.00;100536.16;5092086;28;19916;-69
2022/06/16 04:46:57;;;;;;;;;;;;;;;20.00;100.00;100538.72;5056136;28;20378;-70
2022/06/16 04:49:23;;;;;;;;;;;;;;;20.08;100.00;100541.72;5071768;28;19912;-71
2022/06/16 04:51:48;;;;;;;;;;;;;;;20.06;100.00;100540.97;5070074;28;20251;-70
2022/06/16 04:54:14;;;;;;;;;;;;;;;20.40;100.00;100545.81;5069667;28;20387;-69
2022/06/16 04:56:40;;;;;;;;;;;;;;;20.36;100.00;100544.34;5053612;28;19919;-72
2022/06/16 04:59:05;;;;;;;;;;;;;;;20.11;100.00;100551.84;5070970;28;19981;-70
2022/06/16 05:01:30;;;;;;;;;;;;;;;20.56;100.00;100545.78;5071074;28;19912;-69
2022/06/16 05:03:55;;;;;;;;;;;;;;;20.80;100.00;100552.03;5071374;28;20010;-70
2022/06/16 05:06:21;;;;;;;;;;;;;;;20.53;100.00;100546.78;5070300;28;19912;-70
2022/06/16 05:08:48;;;;;;;;;;;;;;;20.91;100.00;100552.22;5053183;28;20000;-70
2022/06/16 05:11:13;;;;;;;;;;;;;;;21.13;100.00;100549.16;5052834;28;20356;-69
2022/06/16 05:13:39;;;;;;;;;;;;;;;20.70;100.00;100556.09;5070852;28;19923;-69
2022/06/16 05:16:04;;;;;;;;;;;;;;;21.32;100.00;100560.00;5071005;28;20405;-71
2022/06/16 05:18:29;;;;;;;;;;;;;;;21.45;100.00;100560.91;5070930;28;19912;-69
2022/06/16 05:21:04;;;;;;;;;;;;;;;20.96;100.00;100568.25;5070953;28;19916;-69
2022/06/16 05:23:29;;;;;;;;;;;;;;;21.41;100.00;100569.81;5053687;28;20011;-69
2022/06/16 05:25:55;;;;;;;;;;;;;;;21.64;100.00;100568.31;5071203;28;20015;-69
2022/06/16 05:28:20;;;;;;;;;;;;;;;21.63;100.00;100564.91;5071207;28;20356;-69
2022/06/16 05:30:46;;;;;;;;;;;;;;;21.65;100.00;100568.22;5070346;28;19986;-68
2022/06/16 05:33:11;;;;;;;;;;;;;;;21.47;100.00;100556.47;5071709;28;19908;-69
2022/06/16 05:35:37;;;;;;;;;;;;;;;21.45;100.00;100561.72;5071266;28;19920;-69
2022/06/16 05:38:02;;;;;;;;;;;;;;;21.96;100.00;100567.09;5071110;28;20398;-70
2022/06/16 05:40:27;;;;;;;;;;;;;;;21.73;100.00;100567.75;5052951;28;19912;-68
2022/06/16 05:42:53;;;;;;;;;;;;;;;22.32;100.00;100568.09;5071211;28;20401;-69
2022/06/16 05:45:18;;;;;;;;;;;;;;;22.03;100.00;100568.34;5052973;28;20407;-69
2022/06/16 05:47:44;;;;;;;;;;;;;;;22.07;100.00;100569.81;5053331;28;19974;-69
2022/06/16 05:50:10;;;;;;;;;;;;;;;22.65;100.00;100571.97;5070526;28;19978;-69
2022/06/16 05:52:35;;;;;;;;;;;;;;;22.08;100.00;100572.31;5052849;28;19920;-68
2022/06/16 05:55:00;;;;;;;;;;;;;;;21.73;100.00;100572.94;5070644;28;19920;-68
2022/06/16 05:57:26;;;;;;;;;;;;;;;22.37;100.00;100584.16;5052425;28;19978;-72
2022/06/16 05:59:51;;;;;;;;;;;;;;;22.06;100.00;100576.78;5052659;28;19926;-68
2022/06/16 06:02:18;;;;;;;;;;;;;;;22.44;100.00;100582.00;5052170;28;19948;-68
2022/06/16 06:04:44;;;;;;;;;;;;;;;22.28;100.00;100581.38;5052263;28;19920;-70
2022/06/16 06:07:09;;;;;;;;;;;;;;;21.87;100.00;100572.91;5071165;28;19920;-69
2022/06/16 06:17:50;;;;;;;;;;;;;;;22.74;100.00;100585.13;5071168;28;19969;-69
2022/06/16 06:20:15;;;;;;;;;;;;;;;22.77;100.00;100581.50;5070637;28;19912;-69
2022/06/16 06:22:40;;;;;;;;;;;;;;;23.31;100.00;100577.69;5070655;28;19985;-68
2022/06/16 06:25:06;;;;;;;;;;;;;;;23.57;100.00;100584.41;5070613;28;19912;-69
2022/06/16 06:27:34;;;;;;;;;;;;;;;23.12;100.00;100591.09;5069406;28;19908;-69
2022/06/16 06:30:00;;;;;;;;;;;;;;;23.06;100.00;100590.69;5070720;28;20437;-69
2022/06/16 06:32:26;;;;;;;;;;;;;;;23.69;100.00;100591.31;5070876;28;19970;-69
2022/06/16 06:34:51;;;;;;;;;;;;;;;23.67;100.00;100592.41;5070591;28;19920;-70
2022/06/16 06:37:17;;;;;;;;;;;;;;;23.88;100.00;100593.44;5070558;28;20935;-69
2022/06/16 06:39:43;;;;;;;;;;;;;;;24.24;100.00;100598.56;5071131;28;20363;-68
2022/06/16 06:42:08;;;;;;;;;;;;;;;23.92;100.00;100593.09;5052832;28;20010;-69
2022/06/16 06:44:34;;;;;;;;;;;;;;;23.87;100.00;100589.16;5052404;28;20390;-69
2022/06/16 06:47:00;;;;;;;;;;;;;;;24.22;100.00;100587.44;5070659;28;19917;-69
2022/06/16 06:49:25;;;;;;;;;;;;;;;24.75;100.00;100581.63;5070648;28;19999;-69
2022/06/16 06:51:50;;;;;;;;;;;;;;;24.87;100.00;100582.47;5070475;28;19912;-69
2022/06/16 06:54:17;;;;;;;;;;;;;;;24.25;100.00;100586.38;5070599;28;20383;-69
2022/06/16 06:56:43;;;;;;;;;;;;;;;23.78;100.00;100593.28;5069180;28;20434;-69
2022/06/16 06:59:13;;;;;;;;;;;;;;;24.59;100.00;100590.69;5071571;28;20002;-70
2022/06/16 07:01:39;;;;;;;;;;;;;;;24.71;100.00;100589.75;5090662;28;19927;-70
2022/06/16 07:04:04;;;;;;;;;;;;;;;24.70;100.00;100588.13;5089325;28;19912;-70
2022/06/16 07:06:30;;;;;;;;;;;;;;;25.37;100.00;100591.50;5072560;28;19919;-69
2022/06/16 07:08:55;;;;;;;;;;;;;;;25.41;100.00;100593.78;5090687;28;20444;-69
2022/06/16 07:11:21;;;;;;;;;;;;;;;24.79;100.00;100595.22;5090681;28;20355;-69
2022/06/16 07:13:46;;;;;;;;;;;;;;;25.35;100.00;100596.84;5091023;28;20235;-69
2022/06/16 07:16:11;;;;;;;;;;;;;;;25.57;100.00;100594.19;5094344;28;19987;-68
2022/06/16 07:18:37;;;;;;;;;;;;;;;26.02;100.00;100588.81;5076177;28;19921;-69
2022/06/16 07:21:03;;;;;;;;;;;;;;;24.88;100.00;100592.75;5094047;28;20381;-69
2022/06/16 07:23:28;;;;;;;;;;;;;;;25.29;100.00;100596.50;5075998;28;19916;-69
2022/06/16 07:25:53;;;;;;;;;;;;;;;24.99;100.00;100591.91;5075972;28;20350;-68
2022/06/16 07:28:19;;;;;;;;;;;;;;;25.28;100.00;100589.63;5075649;28;19911;-70
2022/06/16 07:30:45;;;;;;;;;;;;;;;25.37;83.69;100592.34;5094222;28;20370;-69
2022/06/16 07:33:12;;;;;;;;;;;;;;;25.82;62.73;100603.47;5093784;28;19908;-69
2022/06/16 07:35:40;;;;;;;;;;;;;;;25.13;84.17;100594.28;5093897;28;19912;-69
2022/06/16 07:38:05;;;;;;;;;;;;;;;25.99;87.82;100592.50;5093778;28;19919;-69
2022/06/16 07:40:31;;;;;;;;;;;;;;;25.98;96.69;100596.06;5075872;28;19912;-69
2022/06/16 07:42:57;;;;;;;;;;;;;;;25.86;97.81;100602.28;5091952;28;20348;-70
2022/06/16 07:45:26;;;;;;;;;;;;;;;26.55;95.57;100593.84;5093666;28;19919;-69
2022/06/16 07:47:52;;;;;;;;;;;;;;;26.78;84.93;100602.34;5075216;28;19938;-69
2022/06/16 07:50:18;;;;;;;;;;;;;;;26.77;91.03;100598.13;5075207;28;20309;-68
2022/06/16 07:52:43;;;;;;;;;;;;;;;27.04;88.42;100595.72;5092072;28;19927;-69
2022/06/16 07:55:09;;;;;;;;;;;;;;;26.91;97.66;100591.72;5093537;28;19948;-69
2022/06/16 07:57:39;;;;;;;;;;;;;;;27.21;93.11;100591.66;5074860;28;19919;-69
2022/06/16 08:00:05;;;;;;;;;;;;;;;26.45;88.60;100586.91;5074162;28;20394;-69
2022/06/16 08:02:30;;;;;;;;;;;;;;;26.52;92.94;100593.28;5075215;28;19974;-69
2022/06/16 08:04:55;;;;;;;;;;;;;;;27.53;75.53;100589.69;5092791;28;19919;-69
2022/06/16 08:07:21;;;;;;;;;;;;;;;26.47;75.51;100590.22;5092776;28;20003;-68
2022/06/16 08:09:46;;;;;;;;;;;;;;;26.46;67.36;100592.00;5092669;28;20424;-68
2022/06/16 08:12:12;;;;;;;;;;;;;;;27.61;71.63;100586.41;5075067;28;19970;-67
2022/06/16 08:14:39;;;;;;;;;;;;;;;27.11;86.22;100590.81;5093007;28;20354;-68
2022/06/16 08:17:06;;;;;;;;;;;;;;;27.66;90.26;100586.81;5074977;28;19912;-69
2022/06/16 08:19:31;;;;;;;;;;;;;;;27.85;86.90;100585.00;5092663;28;19912;-69
2022/06/16 08:21:57;;;;;;;;;;;;;;;26.92;89.48;100583.72;5092579;28;19912;-72
2022/06/16 08:24:22;;;;;;;;;;;;;;;27.83;88.38;100581.72;5093004;28;19912;-70
2022/06/16 08:26:47;;;;;;;;;;;;;;;27.91;89.81;100581.84;5092637;28;20289;-69
2022/06/16 08:29:15;;;;;;;;;;;;;;;26.91;84.71;100587.31;5093632;28;19966;-70
2022/06/16 08:31:40;;;;;;;;;;;;;;;27.42;82.65;100582.81;5074818;28;19919;-69
2022/06/16 08:34:06;;;;;;;;;;;;;;;26.99;84.53;100590.09;5092188;28;19916;-71
2022/06/16 08:36:31;;;;;;;;;;;;;;;27.40;82.56;100583.88;5074652;28;19912;-71
2022/06/16 08:38:57;;;;;;;;;;;;;;;27.58;89.62;100576.22;5092713;28;20365;-70
2022/06/16 08:41:30;;;;;;;;;;;;;;;27.52;83.92;100587.22;5092104;28;20019;-70
2022/06/16 08:44:10;;;;;;;;;;;;;;;27.81;74.50;100577.59;5073676;28;19998;-70
2022/06/16 08:46:38;;;;;;;;;;;;;;;27.08;82.26;100578.00;5073761;28;19967;-69
2022/06/16 08:49:15;;;;;;;;;;;;;;;27.19;82.76;100590.97;5092461;28;19923;-70
2022/06/16 08:51:59;;;;;;;;;;;;;;;28.21;78.75;100580.88;5092199;28;19908;-76
2022/06/16 08:54:25;;;;;;;;;;;;;;;28.46;63.30;100579.47;5074386;28;20272;-69
2022/06/16 08:56:54;;;;;;;;;;;;;;;27.93;68.10;100540.69;5092184;28;19912;-70
2022/06/16 08:59:37;;;;;;;;;;;;;;;27.91;70.00;100562.75;5092101;28;19919;-78
2022/06/16 09:02:05;;;;;;;;;;;;;;;27.81;68.45;100569.75;5074128;28;19966;-70
2022/06/16 09:04:32;;;;;;;;;;;;;;;28.09;78.73;100555.84;5092187;28;19920;-69
2022/06/16 09:07:03;;;;;;;;;;;;;;;27.91;70.31;100553.09;5073984;28;19920;-69
2022/06/16 09:12:35;;;;;;;;;;;;;;;28.02;76.45;100560.00;5092157;28;19977;-75
2022/06/16 09:15:13;;;;;;;;;;;;;;;27.75;70.65;100568.50;5073569;28;19919;-69
2022/06/16 09:17:41;;;;;;;;;;;;;;;28.00;71.87;100559.31;5091664;28;19912;-70
2022/06/16 09:20:10;;;;;;;;;;;;;;;27.64;78.95;100559.97;5091545;28;20071;-69
2022/06/16 09:22:41;;;;;;;;;;;;;;;27.93;76.45;100553.78;5091886;28;19912;-69
2022/06/16 09:25:24;;;;;;;;;;;;;;;28.43;74.49;100561.41;5091613;28;19934;-69
2022/06/16 09:28:03;;;;;;;;;;;;;;;28.03;71.81;100556.41;5073312;28;19934;-78
2022/06/16 09:30:33;;;;;;;;;;;;;;;28.34;75.07;100555.25;5091494;28;19914;-70
2022/06/16 09:33:18;;;;;;;;;;;;;;;28.44;74.69;100553.44;5091737;28;19912;-69
2022/06/16 09:35:56;;;;;;;;;;;;;;;27.91;72.62;100553.09;5091457;28;19916;-69
2022/06/16 09:38:21;;;;;;;;;;;;;;;27.66;77.33;100547.59;5072370;28;20382;-70
2022/06/16 09:40:50;;;;;;;;;;;;;;;27.53;79.53;100552.28;5091620;28;19912;-69
2022/06/16 09:43:26;;;;;;;;;;;;;;;28.82;72.79;100547.25;5073434;28;19920;-69
2022/06/16 09:45:51;;;;;;;;;;;;;;;28.72;71.07;100541.22;5073138;28;20374;-72
2022/06/16 09:48:27;;;;;;;;;;;;;;;29.51;74.70;100537.88;5069908;28;19916;-69
2022/06/16 09:50:57;;;;;;;;;;;;;;;28.89;74.96;100545.69;5071561;28;19958;-69
2022/06/16 09:53:34;;;;;;;;;;;;;;;28.57;70.33;100543.50;5071126;28;20379;-70
2022/06/16 09:56:12;;;;;;;;;;;;;;;27.59;74.34;100542.13;5071048;28;19912;-69
2022/06/16 09:58:42;;;;;;;;;;;;;;;27.85;74.86;100542.38;5067971;28;20393;-72
2022/06/16 10:01:09;;;;;;;;;;;;;;;28.88;67.53;100544.06;5069171;28;19923;-72
2022/06/16 10:03:54;;;;;;;;;;;;;;;28.42;75.08;100539.66;5049897;28;19920;-73
2022/06/16 10:06:31;;;;;;;;;;;;;;;28.99;76.65;100551.69;5049974;28;19923;-74
2022/06/16 10:09:12;;;;;;;;;;;;;;;28.31;68.77;100544.25;5061196;28;20030;-72
2022/06/16 10:11:46;;;;;;;;;;;;;;;28.46;68.22;100542.81;5063938;28;19935;-72
2022/06/16 10:14:21;;;;;;;;;;;;;;;29.53;70.33;100546.41;5071319;28;19970;-72
2022/06/16 10:16:53;;;;;;;;;;;;;;;27.28;75.10;100537.91;5071461;28;19943;-72
2022/06/16 10:19:19;;;;;;;;;;;;;;;28.90;70.68;100537.66;5068079;28;20371;-72
2022/06/16 10:21:45;;;;;;;;;;;;;;;27.60;77.06;100545.53;5060639;28;19927;-70
2022/06/16 10:24:11;;;;;;;;;;;;;;;28.81;73.12;100538.56;5064359;28;20258;-71
2022/06/16 10:26:36;;;;;;;;;;;;;;;28.67;75.10;100536.41;5053490;28;20007;-69
2022/06/16 10:29:04;;;;;;;;;;;;;;;29.26;70.53;100530.72;5055222;28;20341;-69
2022/06/16 10:31:40;;;;;;;;;;;;;;;28.99;64.52;100544.66;5069575;28;19912;-68
2022/06/16 10:34:16;;;;;;;;;;;;;;;28.59;76.06;100528.47;5086120;28;19924;-71
2022/06/16 10:36:45;;;;;;;;;;;;;;;29.52;70.33;100517.69;5071326;28;20373;-70
2022/06/16 10:39:10;;;;;;;;;;;;;;;29.06;66.95;100518.69;5066943;28;19958;-68
2022/06/16 10:41:41;;;;;;;;;;;;;;;28.63;68.33;100515.91;5070204;28;20309;-68
2022/06/16 10:44:10;;;;;;;;;;;;;;;29.44;64.95;100520.25;5069079;28;20393;-68
2022/06/16 10:46:36;;;;;;;;;;;;;;;28.67;66.48;100519.88;5069006;28;19916;-68
2022/06/16 10:49:04;;;;;;;;;;;;;;;28.86;72.57;100514.56;5071268;28;19995;-68
2022/06/16 10:51:32;;;;;;;;;;;;;;;28.35;69.26;100509.78;5072022;28;19958;-70
2022/06/16 10:54:03;;;;;;;;;;;;;;;28.33;72.23;100510.91;5073558;28;19913;-68
2022/06/16 10:56:28;;;;;;;;;;;;;;;29.30;73.88;100508.50;5073637;28;19912;-68
2022/06/16 10:58:56;;;;;;;;;;;;;;;29.63;70.94;100509.63;5073619;28;19960;-69
2022/06/16 11:01:23;;;;;;;;;;;;;;;28.20;71.65;100500.75;5073276;28;19943;-69
2022/06/16 11:03:50;;;;;;;;;;;;;;;27.72;76.65;100500.81;5073966;28;20373;-69
2022/06/16 11:06:17;;;;;;;;;;;;;;;28.66;74.88;100507.78;5072434;28;20344;-68
2022/06/16 11:08:45;;;;;;;;;;;;;;;28.97;69.53;100504.69;5071657;28;19912;-73
2022/06/16 11:11:11;;;;;;;;;;;;;;;28.63;75.38;100511.50;5074345;28;19912;-70
2022/06/16 11:13:38;;;;;;;;;;;;;;;28.91;67.71;100502.66;5072318;28;19962;-69
2022/06/16 11:16:08;;;;;;;;;;;;;;;28.91;65.31;100500.06;5072711;28;20513;-68
2022/06/16 11:18:35;;;;;;;;;;;;;;;28.43;73.93;100503.84;5072783;28;20353;-68
2022/06/16 11:21:10;;;;;;;;;;;;;;;28.28;72.39;100493.03;5072732;28;20019;-68
2022/06/16 11:23:42;;;;;;;;;;;;;;;28.31;77.62;100497.16;5073556;28;19919;-68
2022/06/16 11:26:14;;;;;;;;;;;;;;;28.50;69.60;100486.59;5073854;28;19912;-68
2022/06/16 11:28:48;;;;;;;;;;;;;;;28.30;70.56;100488.47;5073859;28;19948;-69
2022/06/16 11:31:15;;;;;;;;;;;;;;;28.19;73.65;100492.09;5073898;28;19946;-69
2022/06/16 11:36:30;;;;;;;;;;;;;;;28.73;66.71;100470.38;5073334;28;20019;-69
2022/06/16 11:39:10;;;;;;;;;;;;;;;28.79;74.87;100461.13;5073528;28;19928;-70
2022/06/16 11:41:35;;;;;;;;;;;;;;;27.92;77.32;100465.00;5074189;28;20294;-69
2022/06/16 11:44:18;;;;;;;;;;;;;;;28.28;79.45;100464.25;5073345;28;19915;-69
2022/06/16 11:46:59;;;;;;;;;;;;;;;29.29;70.76;100462.31;5072017;28;19999;-69
2022/06/16 11:49:24;;;;;;;;;;;;;;;29.60;72.19;100458.28;5071921;28;19920;-68
2022/06/16 11:52:01;;;;;;;;;;;;;;;29.25;68.84;100458.34;5073448;28;19912;-68
2022/06/16 11:54:47;;;;;;;;;;;;;;;28.80;71.45;100463.56;5072099;28;20405;-69
2022/06/16 11:57:21;;;;;;;;;;;;;;;29.04;73.18;100455.97;5031831;28;19948;-68
2022/06/16 12:00:02;;;;;;;;;;;;;;;28.00;66.04;100462.56;5072463;28;19970;-69
2022/06/16 12:02:53;;;;;;;;;;;;;;;28.92;62.52;100461.59;5072618;28;20007;-68
2022/06/16 12:05:19;;;;;;;;;;;;;;;28.65;62.30;100459.00;4991869;28;19921;-68
2022/06/16 12:07:55;;;;;;;;;;;;;;;28.43;67.90;100456.72;5067068;28;20322;-69
2022/06/16 12:10:29;;;;;;;;;;;;;;;29.07;64.43;100450.44;5072816;28;19916;-70
2022/06/16 12:12:54;;;;;;;;;;;;;;;30.00;64.63;100449.91;5072527;28;20004;-69
2022/06/16 12:15:23;;;;;;;;;;;;;;;30.05;62.43;100452.88;5073302;28;20003;-73
2022/06/16 12:17:59;;;;;;;;;;;;;;;29.11;68.54;100454.41;5072823;28;19919;-69
2022/06/16 12:20:47;;;;;;;;;;;;;;;29.26;66.47;100449.50;5071480;28;20098;-68
2022/06/16 12:23:40;;;;;;;;;;;;;;;29.74;70.66;100455.16;5057784;28;20001;-68
2022/06/16 12:26:11;;;;;;;;;;;;;;;28.77;64.07;100453.41;5068761;28;19916;-69
2022/06/16 12:28:45;;;;;;;;;;;;;;;28.13;65.32;100445.56;5071540;28;19962;-69
2022/06/16 12:31:13;;;;;;;;;;;;;;;28.95;58.18;100448.19;5072775;28;19912;-68
2022/06/16 12:33:42;;;;;;;;;;;;;;;28.91;63.77;100446.84;5072624;28;20007;-70
2022/06/16 12:36:27;;;;;;;;;;;;;;;29.05;65.64;100439.31;5071135;28;19959;-68
2022/06/16 12:39:07;;;;;;;;;;;;;;;29.14;61.37;100429.72;5071527;28;19919;-69
2022/06/16 12:41:40;;;;;;;;;;;;;;;29.01;65.94;100435.31;5072350;28;20247;-68
2022/06/16 12:44:06;;;;;;;;;;;;;;;28.93;66.50;100431.81;5072566;28;19978;-69
2022/06/16 12:46:35;;;;;;;;;;;;;;;29.35;70.21;100438.13;5077749;28;19977;-69
2022/06/16 12:49:09;;;;;;;;;;;;;;;29.48;65.05;100440.31;5074349;28;19911;-69
2022/06/16 12:51:54;;;;;;;;;;;;;;;29.56;69.79;100432.53;5092205;28;19908;-69
2022/06/16 12:54:26;;;;;;;;;;;;;;;28.74;74.29;100424.88;5091712;28;19945;-70
2022/06/16 12:56:57;;;;;;;;;;;;;;;28.49;71.96;100422.94;5074195;28;19962;-69
2022/06/16 12:59:35;;;;;;;;;;;;;;;28.19;71.80;100418.00;5073993;28;20361;-68